sensor_id;sensor_type;location;lat;lon;timestamp;P1;durP1;ratioP1;P2;durP2;ratioP2
11907;SDS011;6014;47.690;9.130;2024-02-23T00:02:26;0.60;;;0.50;;
11907;SDS011;6014;47.690;9.130;2024-02-23T00:04:55;0.53;;;0.53;;
11907;SDS011;6014;47.690;9.130;2024-02-23T00:07:24;1.90;;;0.70;;
11907;SDS011;6014;47.690;9.130;2024-02-23T00:09:52;0.60;;;0.60;;
11907;SDS011;6014;47.690;9.130;2024-02-23T00:12:20;0.70;;;0.70;;
11907;SDS011;6014;47.690;9.130;2024-02-23T00:14:49;0.40;;;0.40;;
11907;SDS011;6014;47.690;9.130;2024-02-23T00:17:17;0.40;;;0.40;;
11907;SDS011;6014;47.690;9.130;2024-02-23T00:19:45;0.43;;;0.43;;
11907;SDS011;6014;47.690;9.130;2024-02-23T00:22:14;0.40;;;0.40;;
11907;SDS011;6014;47.690;9.130;2024-02-23T00:24:43;1.70;;;0.60;;
11907;SDS011;6014;47.690;9.130;2024-02-23T00:27:11;0.60;;;0.60;;
11907;SDS011;6014;47.690;9.130;2024-02-23T00:29:39;0.67;;;0.67;;
11907;SDS011;6014;47.690;9.130;2024-02-23T00:32:08;0.60;;;0.60;;
11907;SDS011;6014;47.690;9.130;2024-02-23T00:34:36;0.60;;;0.60;;
11907;SDS011;6014;47.690;9.130;2024-02-23T00:37:04;0.50;;;0.50;;
11907;SDS011;6014;47.690;9.130;2024-02-23T00:39:34;0.57;;;0.57;;
11907;SDS011;6014;47.690;9.130;2024-02-23T00:42:04;0.50;;;0.50;;
11907;SDS011;6014;47.690;9.130;2024-02-23T00:44:32;1.30;;;0.80;;
11907;SDS011;6014;47.690;9.130;2024-02-23T00:47:00;0.80;;;0.80;;
11907;SDS011;6014;47.690;9.130;2024-02-23T00:49:30;0.50;;;0.50;;
11907;SDS011;6014;47.690;9.130;2024-02-23T00:51:58;0.60;;;0.60;;
11907;SDS011;6014;47.690;9.130;2024-02-23T00:54:26;0.60;;;0.60;;
11907;SDS011;6014;47.690;9.130;2024-02-23T00:56:54;0.40;;;0.40;;
11907;SDS011;6014;47.690;9.130;2024-02-23T00:59:24;0.50;;;0.50;;
11907;SDS011;6014;47.690;9.130;2024-02-23T01:01:52;0.40;;;0.40;;
11907;SDS011;6014;47.690;9.130;2024-02-23T01:04:21;0.57;;;0.57;;
11907;SDS011;6014;47.690;9.130;2024-02-23T01:06:49;2.63;;;0.60;;
11907;SDS011;6014;47.690;9.130;2024-02-23T01:09:17;0.50;;;0.50;;
11907;SDS011;6014;47.690;9.130;2024-02-23T01:11:47;0.47;;;0.47;;
11907;SDS011;6014;47.690;9.130;2024-02-23T01:14:15;0.30;;;0.30;;
11907;SDS011;6014;47.690;9.130;2024-02-23T01:16:45;0.40;;;0.40;;
11907;SDS011;6014;47.690;9.130;2024-02-23T01:19:13;0.53;;;0.53;;
11907;SDS011;6014;47.690;9.130;2024-02-23T01:21:42;0.50;;;0.50;;
11907;SDS011;6014;47.690;9.130;2024-02-23T01:24:10;0.50;;;0.50;;
11907;SDS011;6014;47.690;9.130;2024-02-23T01:26:38;0.50;;;0.50;;
11907;SDS011;6014;47.690;9.130;2024-02-23T01:29:08;0.50;;;0.50;;
11907;SDS011;6014;47.690;9.130;2024-02-23T01:31:36;0.30;;;0.30;;
11907;SDS011;6014;47.690;9.130;2024-02-23T01:34:06;0.60;;;0.60;;
11907;SDS011;6014;47.690;9.130;2024-02-23T01:36:34;0.37;;;0.37;;
11907;SDS011;6014;47.690;9.130;2024-02-23T01:39:03;0.40;;;0.40;;
11907;SDS011;6014;47.690;9.130;2024-02-23T01:41:31;0.50;;;0.50;;
11907;SDS011;6014;47.690;9.130;2024-02-23T01:43:59;0.50;;;0.50;;
11907;SDS011;6014;47.690;9.130;2024-02-23T01:46:27;1.03;;;0.53;;
11907;SDS011;6014;47.690;9.130;2024-02-23T01:48:56;0.40;;;0.40;;
11907;SDS011;6014;47.690;9.130;2024-02-23T01:51:26;0.33;;;0.33;;
11907;SDS011;6014;47.690;9.130;2024-02-23T01:53:54;0.30;;;0.30;;
11907;SDS011;6014;47.690;9.130;2024-02-23T01:56:22;0.50;;;0.50;;
11907;SDS011;6014;47.690;9.130;2024-02-23T01:58:50;0.57;;;0.57;;
11907;SDS011;6014;47.690;9.130;2024-02-23T02:01:20;0.50;;;0.50;;
11907;SDS011;6014;47.690;9.130;2024-02-23T02:03:48;0.40;;;0.40;;
11907;SDS011;6014;47.690;9.130;2024-02-23T02:06:16;0.40;;;0.40;;
11907;SDS011;6014;47.690;9.130;2024-02-23T02:08:46;0.40;;;0.40;;
11907;SDS011;6014;47.690;9.130;2024-02-23T02:11:14;0.60;;;0.60;;
11907;SDS011;6014;47.690;9.130;2024-02-23T02:13:43;0.50;;;0.50;;
11907;SDS011;6014;47.690;9.130;2024-02-23T02:16:11;0.40;;;0.40;;
11907;SDS011;6014;47.690;9.130;2024-02-23T02:18:39;0.60;;;0.60;;
11907;SDS011;6014;47.690;9.130;2024-02-23T02:21:07;0.50;;;0.50;;
11907;SDS011;6014;47.690;9.130;2024-02-23T02:23:35;4.83;;;1.00;;
11907;SDS011;6014;47.690;9.130;2024-02-23T02:26:05;0.60;;;0.60;;
11907;SDS011;6014;47.690;9.130;2024-02-23T02:28:34;1.47;;;0.50;;
11907;SDS011;6014;47.690;9.130;2024-02-23T02:31:02;0.50;;;0.50;;
11907;SDS011;6014;47.690;9.130;2024-02-23T02:33:30;0.43;;;0.43;;
11907;SDS011;6014;47.690;9.130;2024-02-23T02:35:58;0.37;;;0.37;;
11907;SDS011;6014;47.690;9.130;2024-02-23T02:38:26;0.47;;;0.47;;
11907;SDS011;6014;47.690;9.130;2024-02-23T02:40:54;0.47;;;0.47;;
11907;SDS011;6014;47.690;9.130;2024-02-23T02:43:26;0.40;;;0.40;;
11907;SDS011;6014;47.690;9.130;2024-02-23T02:45:54;0.37;;;0.37;;
11907;SDS011;6014;47.690;9.130;2024-02-23T02:48:23;0.50;;;0.50;;
11907;SDS011;6014;47.690;9.130;2024-02-23T02:50:51;0.63;;;0.63;;
11907;SDS011;6014;47.690;9.130;2024-02-23T02:53:20;0.80;;;0.70;;
11907;SDS011;6014;47.690;9.130;2024-02-23T02:55:48;0.60;;;0.60;;
11907;SDS011;6014;47.690;9.130;2024-02-23T02:58:16;0.40;;;0.40;;
11907;SDS011;6014;47.690;9.130;2024-02-23T03:00:45;0.23;;;0.23;;
11907;SDS011;6014;47.690;9.130;2024-02-23T03:03:13;0.60;;;0.60;;
11907;SDS011;6014;47.690;9.130;2024-02-23T03:05:41;0.67;;;0.40;;
11907;SDS011;6014;47.690;9.130;2024-02-23T03:08:09;0.63;;;0.63;;
11907;SDS011;6014;47.690;9.130;2024-02-23T03:10:38;0.40;;;0.40;;
11907;SDS011;6014;47.690;9.130;2024-02-23T03:13:06;0.60;;;0.60;;
11907;SDS011;6014;47.690;9.130;2024-02-23T03:15:34;0.87;;;0.67;;
11907;SDS011;6014;47.690;9.130;2024-02-23T03:18:03;0.30;;;0.30;;
11907;SDS011;6014;47.690;9.130;2024-02-23T03:20:32;1.60;;;0.93;;
11907;SDS011;6014;47.690;9.130;2024-02-23T03:23:00;0.83;;;0.60;;
11907;SDS011;6014;47.690;9.130;2024-02-23T03:25:29;0.67;;;0.63;;
11907;SDS011;6014;47.690;9.130;2024-02-23T03:27:57;0.70;;;0.70;;
11907;SDS011;6014;47.690;9.130;2024-02-23T03:30:25;1.13;;;0.50;;
11907;SDS011;6014;47.690;9.130;2024-02-23T03:32:53;0.40;;;0.40;;
11907;SDS011;6014;47.690;9.130;2024-02-23T03:35:23;3.60;;;0.70;;
11907;SDS011;6014;47.690;9.130;2024-02-23T03:37:51;1.03;;;0.50;;
11907;SDS011;6014;47.690;9.130;2024-02-23T03:40:19;0.77;;;0.60;;
11907;SDS011;6014;47.690;9.130;2024-02-23T03:42:47;0.50;;;0.50;;
11907;SDS011;6014;47.690;9.130;2024-02-23T03:45:15;2.30;;;0.60;;
11907;SDS011;6014;47.690;9.130;2024-02-23T03:47:43;2.33;;;0.83;;
11907;SDS011;6014;47.690;9.130;2024-02-23T03:50:11;2.97;;;0.80;;
11907;SDS011;6014;47.690;9.130;2024-02-23T03:52:41;2.23;;;0.77;;
11907;SDS011;6014;47.690;9.130;2024-02-23T03:55:09;1.23;;;0.53;;
11907;SDS011;6014;47.690;9.130;2024-02-23T03:57:37;0.37;;;0.37;;
11907;SDS011;6014;47.690;9.130;2024-02-23T04:00:06;0.60;;;0.60;;
11907;SDS011;6014;47.690;9.130;2024-02-23T04:02:35;0.43;;;0.43;;
11907;SDS011;6014;47.690;9.130;2024-02-23T04:05:04;0.67;;;0.60;;
11907;SDS011;6014;47.690;9.130;2024-02-23T04:07:32;0.80;;;0.60;;
11907;SDS011;6014;47.690;9.130;2024-02-23T04:10:02;1.23;;;0.50;;
11907;SDS011;6014;47.690;9.130;2024-02-23T04:12:31;0.40;;;0.40;;
11907;SDS011;6014;47.690;9.130;2024-02-23T04:14:59;1.10;;;0.50;;
11907;SDS011;6014;47.690;9.130;2024-02-23T04:17:27;0.93;;;0.60;;
11907;SDS011;6014;47.690;9.130;2024-02-23T04:19:54;1.87;;;0.37;;
11907;SDS011;6014;47.690;9.130;2024-02-23T04:22:22;1.23;;;0.77;;
11907;SDS011;6014;47.690;9.130;2024-02-23T04:24:50;0.60;;;0.60;;
11907;SDS011;6014;47.690;9.130;2024-02-23T04:27:20;2.20;;;0.67;;
11907;SDS011;6014;47.690;9.130;2024-02-23T04:29:48;0.40;;;0.40;;
11907;SDS011;6014;47.690;9.130;2024-02-23T04:32:16;3.03;;;0.60;;
11907;SDS011;6014;47.690;9.130;2024-02-23T04:34:44;1.83;;;0.70;;
11907;SDS011;6014;47.690;9.130;2024-02-23T04:37:12;1.93;;;0.73;;
11907;SDS011;6014;47.690;9.130;2024-02-23T04:39:40;0.43;;;0.40;;
11907;SDS011;6014;47.690;9.130;2024-02-23T04:42:10;0.50;;;0.50;;
11907;SDS011;6014;47.690;9.130;2024-02-23T04:44:41;0.77;;;0.60;;
11907;SDS011;6014;47.690;9.130;2024-02-23T04:47:09;0.50;;;0.50;;
11907;SDS011;6014;47.690;9.130;2024-02-23T04:49:37;1.30;;;0.50;;
11907;SDS011;6014;47.690;9.130;2024-02-23T04:52:05;0.60;;;0.60;;
11907;SDS011;6014;47.690;9.130;2024-02-23T04:54:35;1.03;;;0.73;;
11907;SDS011;6014;47.690;9.130;2024-02-23T04:57:03;0.47;;;0.40;;
11907;SDS011;6014;47.690;9.130;2024-02-23T04:59:31;0.87;;;0.70;;
11907;SDS011;6014;47.690;9.130;2024-02-23T05:02:00;0.63;;;0.53;;
11907;SDS011;6014;47.690;9.130;2024-02-23T05:04:29;3.60;;;0.80;;
11907;SDS011;6014;47.690;9.130;2024-02-23T05:06:57;1.27;;;0.80;;
11907;SDS011;6014;47.690;9.130;2024-02-23T05:09:25;2.80;;;0.87;;
11907;SDS011;6014;47.690;9.130;2024-02-23T05:11:53;0.60;;;0.60;;
11907;SDS011;6014;47.690;9.130;2024-02-23T05:14:21;0.50;;;0.50;;
11907;SDS011;6014;47.690;9.130;2024-02-23T05:16:49;1.13;;;0.87;;
11907;SDS011;6014;47.690;9.130;2024-02-23T05:19:19;2.00;;;0.50;;
11907;SDS011;6014;47.690;9.130;2024-02-23T05:21:47;2.63;;;0.40;;
11907;SDS011;6014;47.690;9.130;2024-02-23T05:24:15;0.57;;;0.57;;
11907;SDS011;6014;47.690;9.130;2024-02-23T05:26:43;2.83;;;0.77;;
11907;SDS011;6014;47.690;9.130;2024-02-23T05:29:11;1.73;;;0.70;;
11907;SDS011;6014;47.690;9.130;2024-02-23T05:31:45;1.40;;;0.90;;
11907;SDS011;6014;47.690;9.130;2024-02-23T05:34:14;2.33;;;1.40;;
11907;SDS011;6014;47.690;9.130;2024-02-23T05:36:43;4.67;;;1.87;;
11907;SDS011;6014;47.690;9.130;2024-02-23T05:39:12;2.23;;;1.43;;
11907;SDS011;6014;47.690;9.130;2024-02-23T05:41:41;1.80;;;1.20;;
11907;SDS011;6014;47.690;9.130;2024-02-23T05:44:10;1.20;;;0.93;;
11907;SDS011;6014;47.690;9.130;2024-02-23T05:46:40;0.90;;;0.70;;
11907;SDS011;6014;47.690;9.130;2024-02-23T05:49:09;3.43;;;1.40;;
11907;SDS011;6014;47.690;9.130;2024-02-23T05:51:39;1.33;;;0.90;;
11907;SDS011;6014;47.690;9.130;2024-02-23T05:54:08;0.90;;;0.90;;
11907;SDS011;6014;47.690;9.130;2024-02-23T05:56:37;0.70;;;0.70;;
11907;SDS011;6014;47.690;9.130;2024-02-23T05:59:05;1.00;;;0.80;;
11907;SDS011;6014;47.690;9.130;2024-02-23T06:01:33;2.57;;;0.73;;
11907;SDS011;6014;47.690;9.130;2024-02-23T06:04:02;0.50;;;0.50;;
11907;SDS011;6014;47.690;9.130;2024-02-23T06:06:30;1.40;;;0.70;;
11907;SDS011;6014;47.690;9.130;2024-02-23T06:08:59;0.97;;;0.73;;
11907;SDS011;6014;47.690;9.130;2024-02-23T06:11:30;2.40;;;0.90;;
11907;SDS011;6014;47.690;9.130;2024-02-23T06:13:58;0.80;;;0.60;;
11907;SDS011;6014;47.690;9.130;2024-02-23T06:16:26;1.33;;;1.07;;
11907;SDS011;6014;47.690;9.130;2024-02-23T06:18:54;0.80;;;0.80;;
11907;SDS011;6014;47.690;9.130;2024-02-23T06:21:22;1.03;;;0.90;;
11907;SDS011;6014;47.690;9.130;2024-02-23T06:23:50;3.03;;;0.83;;
11907;SDS011;6014;47.690;9.130;2024-02-23T06:26:18;1.83;;;0.50;;
11907;SDS011;6014;47.690;9.130;2024-02-23T06:28:48;1.43;;;0.70;;
11907;SDS011;6014;47.690;9.130;2024-02-23T06:31:16;4.13;;;1.00;;
11907;SDS011;6014;47.690;9.130;2024-02-23T06:33:44;0.57;;;0.57;;
11907;SDS011;6014;47.690;9.130;2024-02-23T06:36:15;1.10;;;0.90;;
11907;SDS011;6014;47.690;9.130;2024-02-23T06:38:44;0.60;;;0.60;;
11907;SDS011;6014;47.690;9.130;2024-02-23T06:41:12;7.37;;;1.03;;
11907;SDS011;6014;47.690;9.130;2024-02-23T06:43:41;2.17;;;1.00;;
11907;SDS011;6014;47.690;9.130;2024-02-23T06:46:10;1.87;;;1.03;;
11907;SDS011;6014;47.690;9.130;2024-02-23T06:48:39;1.23;;;0.90;;
11907;SDS011;6014;47.690;9.130;2024-02-23T06:51:07;1.07;;;0.77;;
11907;SDS011;6014;47.690;9.130;2024-02-23T06:53:36;1.53;;;1.17;;
11907;SDS011;6014;47.690;9.130;2024-02-23T06:56:05;1.03;;;0.67;;
11907;SDS011;6014;47.690;9.130;2024-02-23T06:58:33;3.23;;;1.20;;
11907;SDS011;6014;47.690;9.130;2024-02-23T07:01:02;4.03;;;0.83;;
11907;SDS011;6014;47.690;9.130;2024-02-23T07:03:33;1.53;;;0.80;;
11907;SDS011;6014;47.690;9.130;2024-02-23T07:06:03;2.80;;;0.80;;
11907;SDS011;6014;47.690;9.130;2024-02-23T07:08:31;0.70;;;0.70;;
11907;SDS011;6014;47.690;9.130;2024-02-23T07:11:00;2.77;;;0.87;;
11907;SDS011;6014;47.690;9.130;2024-02-23T07:13:28;0.97;;;0.67;;
11907;SDS011;6014;47.690;9.130;2024-02-23T07:15:56;1.83;;;0.80;;
11907;SDS011;6014;47.690;9.130;2024-02-23T07:18:24;1.33;;;0.67;;
11907;SDS011;6014;47.690;9.130;2024-02-23T07:20:54;0.50;;;0.50;;
11907;SDS011;6014;47.690;9.130;2024-02-23T07:23:22;3.70;;;0.77;;
11907;SDS011;6014;47.690;9.130;2024-02-23T07:25:50;0.77;;;0.53;;
11907;SDS011;6014;47.690;9.130;2024-02-23T07:28:18;4.00;;;1.27;;
11907;SDS011;6014;47.690;9.130;2024-02-23T07:30:48;1.20;;;0.83;;
11907;SDS011;6014;47.690;9.130;2024-02-23T07:33:16;2.00;;;0.80;;
11907;SDS011;6014;47.690;9.130;2024-02-23T07:35:45;0.60;;;0.60;;
11907;SDS011;6014;47.690;9.130;2024-02-23T07:38:14;1.70;;;0.93;;
11907;SDS011;6014;47.690;9.130;2024-02-23T07:40:44;2.77;;;1.37;;
11907;SDS011;6014;47.690;9.130;2024-02-23T07:43:12;2.90;;;1.20;;
11907;SDS011;6014;47.690;9.130;2024-02-23T07:45:40;6.17;;;1.53;;
11907;SDS011;6014;47.690;9.130;2024-02-23T07:48:09;3.20;;;1.57;;
11907;SDS011;6014;47.690;9.130;2024-02-23T07:50:37;2.40;;;1.27;;
11907;SDS011;6014;47.690;9.130;2024-02-23T07:53:05;2.67;;;1.13;;
11907;SDS011;6014;47.690;9.130;2024-02-23T07:55:34;2.00;;;1.13;;
11907;SDS011;6014;47.690;9.130;2024-02-23T07:58:03;1.87;;;1.07;;
11907;SDS011;6014;47.690;9.130;2024-02-23T08:00:31;1.70;;;1.10;;
11907;SDS011;6014;47.690;9.130;2024-02-23T08:03:00;2.70;;;1.00;;
11907;SDS011;6014;47.690;9.130;2024-02-23T08:05:29;3.10;;;1.33;;
11907;SDS011;6014;47.690;9.130;2024-02-23T08:07:57;1.97;;;1.17;;
11907;SDS011;6014;47.690;9.130;2024-02-23T08:10:25;1.90;;;1.03;;
11907;SDS011;6014;47.690;9.130;2024-02-23T08:12:55;2.20;;;1.00;;
11907;SDS011;6014;47.690;9.130;2024-02-23T08:15:23;2.50;;;1.00;;
11907;SDS011;6014;47.690;9.130;2024-02-23T08:17:51;2.67;;;0.83;;
11907;SDS011;6014;47.690;9.130;2024-02-23T08:20:19;3.30;;;0.90;;
11907;SDS011;6014;47.690;9.130;2024-02-23T08:22:48;1.13;;;0.83;;
11907;SDS011;6014;47.690;9.130;2024-02-23T08:25:16;1.00;;;0.70;;
11907;SDS011;6014;47.690;9.130;2024-02-23T08:27:44;1.53;;;1.00;;
11907;SDS011;6014;47.690;9.130;2024-02-23T08:30:14;1.80;;;1.10;;
11907;SDS011;6014;47.690;9.130;2024-02-23T08:32:42;1.37;;;1.10;;
11907;SDS011;6014;47.690;9.130;2024-02-23T08:35:11;2.00;;;0.83;;
11907;SDS011;6014;47.690;9.130;2024-02-23T08:37:39;2.53;;;1.03;;
11907;SDS011;6014;47.690;9.130;2024-02-23T08:40:08;2.50;;;1.10;;
11907;SDS011;6014;47.690;9.130;2024-02-23T08:42:37;3.90;;;1.10;;
11907;SDS011;6014;47.690;9.130;2024-02-23T08:45:05;1.67;;;0.97;;
11907;SDS011;6014;47.690;9.130;2024-02-23T08:47:37;1.00;;;0.90;;
11907;SDS011;6014;47.690;9.130;2024-02-23T08:50:06;3.03;;;1.20;;
11907;SDS011;6014;47.690;9.130;2024-02-23T08:52:35;1.53;;;0.87;;
11907;SDS011;6014;47.690;9.130;2024-02-23T08:55:03;1.60;;;0.93;;
11907;SDS011;6014;47.690;9.130;2024-02-23T08:57:31;1.83;;;1.00;;
11907;SDS011;6014;47.690;9.130;2024-02-23T09:00:00;0.93;;;0.87;;
11907;SDS011;6014;47.690;9.130;2024-02-23T09:02:31;2.13;;;1.03;;
11907;SDS011;6014;47.690;9.130;2024-02-23T09:05:03;1.00;;;0.90;;
11907;SDS011;6014;47.690;9.130;2024-02-23T09:07:32;2.47;;;1.47;;
11907;SDS011;6014;47.690;9.130;2024-02-23T09:10:00;6.03;;;1.70;;
11907;SDS011;6014;47.690;9.130;2024-02-23T09:12:30;1.63;;;1.17;;
11907;SDS011;6014;47.690;9.130;2024-02-23T09:14:58;1.73;;;0.97;;
11907;SDS011;6014;47.690;9.130;2024-02-23T09:17:26;1.90;;;0.80;;
11907;SDS011;6014;47.690;9.130;2024-02-23T09:19:55;1.53;;;1.00;;
11907;SDS011;6014;47.690;9.130;2024-02-23T09:22:24;2.23;;;1.30;;
11907;SDS011;6014;47.690;9.130;2024-02-23T09:24:52;2.03;;;1.20;;
11907;SDS011;6014;47.690;9.130;2024-02-23T09:27:22;4.53;;;1.10;;
11907;SDS011;6014;47.690;9.130;2024-02-23T09:29:50;2.13;;;1.00;;
11907;SDS011;6014;47.690;9.130;2024-02-23T09:32:18;1.60;;;1.10;;
11907;SDS011;6014;47.690;9.130;2024-02-23T09:34:46;2.23;;;1.10;;
11907;SDS011;6014;47.690;9.130;2024-02-23T09:37:14;1.27;;;0.93;;
11907;SDS011;6014;47.690;9.130;2024-02-23T09:39:44;1.57;;;1.00;;
11907;SDS011;6014;47.690;9.130;2024-02-23T09:42:12;2.00;;;1.00;;
11907;SDS011;6014;47.690;9.130;2024-02-23T09:44:40;2.30;;;1.10;;
11907;SDS011;6014;47.690;9.130;2024-02-23T09:47:12;2.83;;;1.23;;
11907;SDS011;6014;47.690;9.130;2024-02-23T09:49:41;1.37;;;0.97;;
11907;SDS011;6014;47.690;9.130;2024-02-23T09:52:09;1.97;;;1.10;;
11907;SDS011;6014;47.690;9.130;2024-02-23T09:54:37;2.47;;;1.00;;
11907;SDS011;6014;47.690;9.130;2024-02-23T09:57:08;3.00;;;0.97;;
11907;SDS011;6014;47.690;9.130;2024-02-23T09:59:36;1.00;;;0.90;;
11907;SDS011;6014;47.690;9.130;2024-02-23T10:02:06;1.87;;;1.07;;
11907;SDS011;6014;47.690;9.130;2024-02-23T10:04:36;2.30;;;0.80;;
11907;SDS011;6014;47.690;9.130;2024-02-23T10:07:06;0.67;;;0.67;;
11907;SDS011;6014;47.690;9.130;2024-02-23T10:09:34;1.70;;;1.07;;
11907;SDS011;6014;47.690;9.130;2024-02-23T10:12:02;1.60;;;1.00;;
11907;SDS011;6014;47.690;9.130;2024-02-23T10:14:32;2.67;;;0.97;;
11907;SDS011;6014;47.690;9.130;2024-02-23T10:17:01;1.80;;;1.00;;
11907;SDS011;6014;47.690;9.130;2024-02-23T10:19:29;1.60;;;1.10;;
11907;SDS011;6014;47.690;9.130;2024-02-23T10:21:57;1.20;;;0.80;;
11907;SDS011;6014;47.690;9.130;2024-02-23T10:24:25;1.87;;;0.93;;
11907;SDS011;6014;47.690;9.130;2024-02-23T10:26:53;2.53;;;0.90;;
11907;SDS011;6014;47.690;9.130;2024-02-23T10:29:22;4.60;;;0.80;;
11907;SDS011;6014;47.690;9.130;2024-02-23T10:31:52;1.67;;;0.80;;
11907;SDS011;6014;47.690;9.130;2024-02-23T10:34:25;1.27;;;0.80;;
11907;SDS011;6014;47.690;9.130;2024-02-23T10:36:57;0.77;;;0.70;;
11907;SDS011;6014;47.690;9.130;2024-02-23T10:39:25;1.43;;;0.87;;
11907;SDS011;6014;47.690;9.130;2024-02-23T10:41:58;1.73;;;0.93;;
11907;SDS011;6014;47.690;9.130;2024-02-23T10:44:30;2.20;;;0.90;;
11907;SDS011;6014;47.690;9.130;2024-02-23T10:46:59;1.87;;;1.03;;
11907;SDS011;6014;47.690;9.130;2024-02-23T10:49:29;2.47;;;1.20;;
11907;SDS011;6014;47.690;9.130;2024-02-23T10:51:58;2.27;;;1.00;;
11907;SDS011;6014;47.690;9.130;2024-02-23T10:54:28;1.83;;;1.08;;
11907;SDS011;6014;47.690;9.130;2024-02-23T10:56:58;1.37;;;0.77;;
11907;SDS011;6014;47.690;9.130;2024-02-23T10:59:26;1.13;;;0.80;;
11907;SDS011;6014;47.690;9.130;2024-02-23T11:01:55;1.30;;;0.90;;
11907;SDS011;6014;47.690;9.130;2024-02-23T11:04:27;1.73;;;0.83;;
11907;SDS011;6014;47.690;9.130;2024-02-23T11:06:56;2.90;;;1.10;;
11907;SDS011;6014;47.690;9.130;2024-02-23T11:09:31;3.77;;;2.20;;
11907;SDS011;6014;47.690;9.130;2024-02-23T11:12:03;2.17;;;1.20;;
11907;SDS011;6014;47.690;9.130;2024-02-23T11:14:34;2.10;;;0.90;;
11907;SDS011;6014;47.690;9.130;2024-02-23T11:17:03;1.27;;;0.73;;
11907;SDS011;6014;47.690;9.130;2024-02-23T11:19:34;1.10;;;0.70;;
11907;SDS011;6014;47.690;9.130;2024-02-23T11:22:04;0.67;;;0.67;;
11907;SDS011;6014;47.690;9.130;2024-02-23T11:24:42;3.87;;;1.20;;
11907;SDS011;6014;47.690;9.130;2024-02-23T11:27:13;3.15;;;0.85;;
11907;SDS011;6014;47.690;9.130;2024-02-23T11:29:45;4.10;;;1.10;;
11907;SDS011;6014;47.690;9.130;2024-02-23T11:32:13;1.55;;;0.82;;
11907;SDS011;6014;47.690;9.130;2024-02-23T11:34:52;3.17;;;0.90;;
11907;SDS011;6014;47.690;9.130;2024-02-23T11:37:22;3.00;;;1.00;;
11907;SDS011;6014;47.690;9.130;2024-02-23T11:39:50;1.60;;;0.80;;
11907;SDS011;6014;47.690;9.130;2024-02-23T11:42:19;1.20;;;1.00;;
11907;SDS011;6014;47.690;9.130;2024-02-23T11:44:48;3.08;;;0.98;;
11907;SDS011;6014;47.690;9.130;2024-02-23T11:47:17;3.25;;;1.00;;
11907;SDS011;6014;47.690;9.130;2024-02-23T11:49:46;1.40;;;0.57;;
11907;SDS011;6014;47.690;9.130;2024-02-23T11:52:15;1.13;;;0.50;;
11907;SDS011;6014;47.690;9.130;2024-02-23T11:54:43;0.90;;;0.68;;
11907;SDS011;6014;47.690;9.130;2024-02-23T11:57:12;1.20;;;0.68;;
11907;SDS011;6014;47.690;9.130;2024-02-23T11:59:40;2.10;;;0.88;;
11907;SDS011;6014;47.690;9.130;2024-02-23T12:02:09;2.80;;;0.80;;
11907;SDS011;6014;47.690;9.130;2024-02-23T12:04:37;1.90;;;1.23;;
11907;SDS011;6014;47.690;9.130;2024-02-23T12:07:06;2.40;;;0.73;;
11907;SDS011;6014;47.690;9.130;2024-02-23T12:09:35;1.98;;;1.20;;
11907;SDS011;6014;47.690;9.130;2024-02-23T12:12:03;2.03;;;0.98;;
11907;SDS011;6014;47.690;9.130;2024-02-23T12:14:34;4.75;;;1.20;;
11907;SDS011;6014;47.690;9.130;2024-02-23T12:17:03;2.65;;;1.20;;
11907;SDS011;6014;47.690;9.130;2024-02-23T12:19:32;2.10;;;0.90;;
11907;SDS011;6014;47.690;9.130;2024-02-23T12:22:04;3.97;;;1.02;;
11907;SDS011;6014;47.690;9.130;2024-02-23T12:24:34;3.85;;;0.80;;
11907;SDS011;6014;47.690;9.130;2024-02-23T12:27:02;2.35;;;1.00;;
11907;SDS011;6014;47.690;9.130;2024-02-23T12:29:31;1.65;;;0.80;;
11907;SDS011;6014;47.690;9.130;2024-02-23T12:32:04;1.50;;;0.80;;
11907;SDS011;6014;47.690;9.130;2024-02-23T12:34:32;0.95;;;0.70;;
11907;SDS011;6014;47.690;9.130;2024-02-23T12:37:01;2.15;;;0.98;;
11907;SDS011;6014;47.690;9.130;2024-02-23T12:39:30;2.90;;;1.30;;
11907;SDS011;6014;47.690;9.130;2024-02-23T12:41:59;2.00;;;0.77;;
11907;SDS011;6014;47.690;9.130;2024-02-23T12:44:27;2.05;;;1.13;;
11907;SDS011;6014;47.690;9.130;2024-02-23T12:46:55;2.00;;;0.93;;
11907;SDS011;6014;47.690;9.130;2024-02-23T12:49:24;2.95;;;0.95;;
11907;SDS011;6014;47.690;9.130;2024-02-23T12:51:52;2.40;;;0.95;;
11907;SDS011;6014;47.690;9.130;2024-02-23T12:54:20;2.10;;;0.82;;
11907;SDS011;6014;47.690;9.130;2024-02-23T12:56:48;2.88;;;1.15;;
11907;SDS011;6014;47.690;9.130;2024-02-23T12:59:17;3.83;;;1.08;;
11907;SDS011;6014;47.690;9.130;2024-02-23T13:01:45;2.88;;;1.10;;
11907;SDS011;6014;47.690;9.130;2024-02-23T13:04:18;3.83;;;1.10;;
11907;SDS011;6014;47.690;9.130;2024-02-23T13:06:46;6.28;;;1.35;;
11907;SDS011;6014;47.690;9.130;2024-02-23T13:09:14;3.95;;;0.88;;
11907;SDS011;6014;47.690;9.130;2024-02-23T13:11:42;2.28;;;1.10;;
11907;SDS011;6014;47.690;9.130;2024-02-23T13:14:12;1.00;;;0.55;;
11907;SDS011;6014;47.690;9.130;2024-02-23T13:16:43;2.75;;;1.17;;
11907;SDS011;6014;47.690;9.130;2024-02-23T13:19:11;2.50;;;1.20;;
11907;SDS011;6014;47.690;9.130;2024-02-23T13:21:39;1.33;;;0.95;;
11907;SDS011;6014;47.690;9.130;2024-02-23T13:24:07;1.48;;;0.90;;
11907;SDS011;6014;47.690;9.130;2024-02-23T13:26:35;2.33;;;1.20;;
11907;SDS011;6014;47.690;9.130;2024-02-23T13:29:04;2.10;;;1.00;;
11907;SDS011;6014;47.690;9.130;2024-02-23T13:31:32;2.45;;;0.98;;
11907;SDS011;6014;47.690;9.130;2024-02-23T13:34:01;3.47;;;1.00;;
11907;SDS011;6014;47.690;9.130;2024-02-23T13:36:29;6.03;;;1.42;;
11907;SDS011;6014;47.690;9.130;2024-02-23T13:38:58;2.63;;;0.93;;
11907;SDS011;6014;47.690;9.130;2024-02-23T13:41:26;2.13;;;0.95;;
11907;SDS011;6014;47.690;9.130;2024-02-23T13:43:55;5.63;;;1.48;;
11907;SDS011;6014;47.690;9.130;2024-02-23T13:46:23;4.13;;;1.50;;
11907;SDS011;6014;47.690;9.130;2024-02-23T13:49:05;3.45;;;1.40;;
11907;SDS011;6014;47.690;9.130;2024-02-23T13:51:36;0.90;;;0.80;;
11907;SDS011;6014;47.690;9.130;2024-02-23T13:54:04;4.30;;;0.90;;
11907;SDS011;6014;47.690;9.130;2024-02-23T13:56:32;2.75;;;1.05;;
11907;SDS011;6014;47.690;9.130;2024-02-23T13:59:00;2.40;;;1.33;;
11907;SDS011;6014;47.690;9.130;2024-02-23T14:01:29;3.17;;;1.05;;
11907;SDS011;6014;47.690;9.130;2024-02-23T14:03:57;3.00;;;1.00;;
11907;SDS011;6014;47.690;9.130;2024-02-23T14:06:26;1.70;;;0.75;;
11907;SDS011;6014;47.690;9.130;2024-02-23T14:08:54;1.73;;;1.00;;
11907;SDS011;6014;47.690;9.130;2024-02-23T14:11:22;2.20;;;1.00;;
11907;SDS011;6014;47.690;9.130;2024-02-23T14:13:51;2.88;;;0.90;;
11907;SDS011;6014;47.690;9.130;2024-02-23T14:16:20;2.35;;;0.90;;
11907;SDS011;6014;47.690;9.130;2024-02-23T14:18:49;0.77;;;0.60;;
11907;SDS011;6014;47.690;9.130;2024-02-23T14:21:18;1.88;;;0.77;;
11907;SDS011;6014;47.690;9.130;2024-02-23T14:23:48;1.40;;;0.82;;
11907;SDS011;6014;47.690;9.130;2024-02-23T14:26:16;1.92;;;0.82;;
11907;SDS011;6014;47.690;9.130;2024-02-23T14:28:45;2.67;;;0.88;;
11907;SDS011;6014;47.690;9.130;2024-02-23T14:31:12;0.82;;;0.57;;
11907;SDS011;6014;47.690;9.130;2024-02-23T14:33:40;4.40;;;1.25;;
11907;SDS011;6014;47.690;9.130;2024-02-23T14:36:12;2.58;;;1.15;;
11907;SDS011;6014;47.690;9.130;2024-02-23T14:38:42;5.10;;;1.15;;
11907;SDS011;6014;47.690;9.130;2024-02-23T14:41:11;2.40;;;1.08;;
11907;SDS011;6014;47.690;9.130;2024-02-23T14:43:39;3.17;;;1.05;;
11907;SDS011;6014;47.690;9.130;2024-02-23T14:46:07;1.83;;;1.02;;
11907;SDS011;6014;47.690;9.130;2024-02-23T14:48:36;1.40;;;0.80;;
11907;SDS011;6014;47.690;9.130;2024-02-23T14:51:04;0.93;;;0.80;;
11907;SDS011;6014;47.690;9.130;2024-02-23T14:53:35;3.42;;;1.02;;
11907;SDS011;6014;47.690;9.130;2024-02-23T14:56:04;1.50;;;0.90;;
11907;SDS011;6014;47.690;9.130;2024-02-23T14:58:35;3.28;;;0.85;;
11907;SDS011;6014;47.690;9.130;2024-02-23T15:01:03;2.67;;;0.90;;
11907;SDS011;6014;47.690;9.130;2024-02-23T15:03:32;1.63;;;0.93;;
11907;SDS011;6014;47.690;9.130;2024-02-23T15:06:01;3.58;;;0.93;;
11907;SDS011;6014;47.690;9.130;2024-02-23T15:08:29;0.75;;;0.52;;
11907;SDS011;6014;47.690;9.130;2024-02-23T15:10:57;2.17;;;1.02;;